• Join FlightAware (Why Join?)
  • Login
  • US Flag 
01:00PM EDT


 

Airport Tracker/Info


-or-


 

Live Flight TrackerFlight Track Log ✈ FDX1378 ✈ 07-May-2012 ✈ KBUF - KMEM

Flight Track Log - Related Links

Times and Time Zones

All times are in EDT time to prevent confusion due to time zone crossing. See the FDX1378 flight status page for this flight to view local times or setup timezone preferences in your user account.

Time Position Orientation Groundspeed Altitude Reporting Facility
EDT Latitude Longitude Course Direction KTS MPH feet Rate Location/Type
09:46PM 42.9333 -78.7333 241° Southwest 144 166 1,600  Level Buffalo TRACON
09:48PM 42.9000 -78.8167 259° West 204 235 3,800 2,460 Climbing Buffalo TRACON
09:50PM 42.8611 -79.0906 258° West 264 304 11,600 2,760 Climbing Cleveland Center
09:51PM 42.8419 -79.2183 258° West 328 377 14,900 3,000 Climbing Cleveland Center
09:52PM 42.8186 -79.3633 257° West 358 412 18,300 3,000 Climbing Cleveland Center
09:53PM 42.7931 -79.5167 259° West 375 432 20,900 2,400 Climbing Cleveland Center
09:54PM 42.7714 -79.6639 255° West 382 440 23,200 2,220 Climbing Cleveland Center
09:55PM 42.7431 -79.8114 257° West 397 457 25,400 2,100 Climbing Cleveland Center
09:56PM 42.7169 -79.9614 250° West 403 464 27,400 1,800 Climbing Cleveland Center
09:57PM 42.6761 -80.1117 242° Southwest 419 482 29,000 1,800 Climbing Cleveland Center
09:58PM 42.6203 -80.2531 240° Southwest 430 495 31,100 1,500 Climbing Cleveland Center
09:59PM 42.5622 -80.3914 241° Southwest 430 495 32,000 360 Climbing Cleveland Center
10:01PM 42.4956 -80.5522 241° Southwest 424 488 32,000  Level Cleveland Center
10:02PM 42.4394 -80.6900 240° Southwest 424 488 32,000  Level Cleveland Center
10:03PM 42.3808 -80.8278 240° Southwest 424 488 32,000  Level Cleveland Center
10:04PM 42.3219 -80.9650 239° Southwest 424 488 32,000 600 Level Cleveland Center
10:05PM 42.2631 -81.0994 240° Southwest 424 488 33,300 1,320 Climbing Cleveland Center
10:06PM 42.2061 -81.2333 242° Southwest 424 488 34,700 1,320 Climbing Cleveland Center
10:07PM 42.1511 -81.3700 239° Southwest 424 488 36,000 600 Climbing Cleveland Center
10:08PM 42.0917 -81.5036 239° Southwest 418 481 36,000  Level Cleveland Center
10:09PM 42.0344 -81.6342 240° Southwest 418 481 36,000  Level Cleveland Center
10:10PM 41.9767 -81.7703 239° Southwest 418 481 36,000  Level Cleveland Center
10:11PM 41.9169 -81.9031 240° Southwest 423 487 36,000  Level Cleveland Center
10:12PM 41.8483 -82.0606 239° Southwest 423 487 36,000 -60 Level Cleveland Center
10:13PM 41.7903 -82.1900 240° Southwest 417 480 35,900  Descending Cleveland Center
10:14PM 41.7342 -82.3222 238° Southwest 417 480 36,000  Climbing Cleveland Center
10:15PM 41.6781 -82.4431 240° Southwest 417 480 36,000  Level Cleveland Center
10:16PM 41.6131 -82.5911 240° Southwest 424 488 36,000  Level Cleveland Center
10:17PM 41.5631 -82.7061 239° Southwest 418 481 36,000  Level Cleveland Center
10:21PM 41.3258 -83.2256 237° Southwest 415 478 36,000  Level Indianapolis Center
10:22PM 41.2697 -83.3417 240° Southwest 415 478 36,000  Level Indianapolis Center
10:23PM 41.2136 -83.4714 239° Southwest 415 478 36,000  Level Indianapolis Center
10:24PM 41.1553 -83.5983 237° Southwest 415 478 36,000  Level Indianapolis Center
10:25PM 41.0947 -83.7222 240° Southwest 410 472 36,000  Level Indianapolis Center
10:26PM 41.0300 -83.8678 233° Southwest 410 472 36,000  Level Indianapolis Center
10:27PM 40.9631 -83.9858 221° Southwest 417 480 36,000 -60 Level Indianapolis Center
10:28PM 40.8772 -84.0839 222° Southwest 406 467 35,900  Descending Indianapolis Center
10:29PM 40.7911 -84.1847 225° Southwest 411 473 36,000  Climbing Indianapolis Center
10:30PM 40.7094 -84.2908 226° Southwest 417 480 36,000  Level Indianapolis Center
10:31PM 40.6294 -84.3992 225° Southwest 411 473 36,000  Level Indianapolis Center
10:32PM 40.5494 -84.5047 224° Southwest 411 473 36,000  Level Indianapolis Center
10:33PM 40.4758 -84.5994 225° Southwest 411 473 36,000  Level Indianapolis Center
10:34PM 40.3978 -84.7017 225° Southwest 411 473 36,000  Level Indianapolis Center
10:35PM 40.3153 -84.8092 223° Southwest 406 467 36,000  Level Indianapolis Center
10:36PM 40.2267 -84.9192 225° Southwest 406 467 36,000  Level Indianapolis Center
10:37PM 40.1439 -85.0261 226° Southwest 406 467 36,000  Level Indianapolis Center
10:38PM 40.0656 -85.1331 222° Southwest 406 467 36,000  Level Indianapolis Center
10:39PM 39.9828 -85.2314 214° Southwest 406 467 36,000  Level Indianapolis Center
10:40PM 39.8900 -85.3131 214° Southwest 411 473 36,000  Level Indianapolis Center
10:41PM 39.7947 -85.3972 215° Southwest 416 479 36,000  Level Indianapolis Center
10:42PM 39.7039 -85.4811 214° Southwest 411 473 36,000  Level Indianapolis Center
10:43PM 39.6086 -85.5647 219° Southwest 411 473 36,000  Level Indianapolis Center
10:44PM 39.5322 -85.6461 226° Southwest 411 473 36,000  Level Indianapolis Center
10:45PM 39.4531 -85.7539 227° Southwest 411 473 36,000  Level Indianapolis Center
10:46PM 39.3781 -85.8592 226° Southwest 411 473 36,000  Level Indianapolis Center
10:47PM 39.2989 -85.9639 227° Southwest 411 473 36,000  Level Indianapolis Center
10:48PM 39.2153 -86.0789 226° Southwest 411 473 36,000  Level Indianapolis Center
10:49PM 39.1378 -86.1833 225° Southwest 411 473 36,000  Level Indianapolis Center
10:50PM 39.0561 -86.2900 225° Southwest 411 473 36,000  Level Indianapolis Center
10:51PM 38.9786 -86.3914 226° Southwest 411 473 36,000  Level Indianapolis Center
10:52PM 38.9031 -86.4925 229° Southwest 411 473 36,000  Level Indianapolis Center
10:53PM 38.8317 -86.5961 225° Southwest 411 473 36,000  Level Indianapolis Center
10:54PM 38.7519 -86.6967 226° Southwest 406 467 36,000  Level Indianapolis Center
10:55PM 38.6761 -86.7972 226° Southwest 406 467 36,000  Level Indianapolis Center
10:56PM 38.6003 -86.8975 227° Southwest 401 461 36,000  Level Indianapolis Center
10:57PM 38.5244 -87.0000 227° Southwest 401 461 36,000  Level Indianapolis Center
10:58PM 38.4483 -87.1025 221° Southwest 401 461 36,000  Level Indianapolis Center
10:59PM 38.3686 -87.1914 229° Southwest 415 478 36,000  Level Indianapolis Center
11:00PM 38.2942 -87.2989 225° Southwest 415 478 36,000  Level Indianapolis Center
11:01PM 38.2158 -87.3981 225° Southwest 410 472 36,000  Level Indianapolis Center
11:02PM 38.1375 -87.4969 225° Southwest 404 465 36,000  Level Indianapolis Center
11:03PM 38.0592 -87.5956 225° Southwest 404 465 36,000  Level Indianapolis Center
11:04PM 37.9806 -87.6967 212° Southwest 404 465 36,000  Level Indianapolis Center
11:06PM 37.7467 -87.8842 205° Southwest 401 461 36,000  Level Memphis Center
11:08PM 37.5408 -88.0058 206° Southwest 412 474 36,000  Level Memphis Center
11:09PM 37.4400 -88.0689 204° Southwest 412 474 36,000  Level Memphis Center
11:10PM 37.3347 -88.1292 205° Southwest 412 474 36,000 -300 Level Memphis Center
11:13PM 37.0233 -88.3147 206° Southwest 418 481 35,000 -300 Descending Memphis Center
11:14PM 36.9203 -88.3769 203° Southwest 423 487 35,000  Level Memphis Center
11:15PM 36.8147 -88.4339 206° Southwest 423 487 35,000  Level Memphis Center
11:18PM 36.5050 -88.6194 205° Southwest 418 481 35,000 -60 Level Memphis Center
11:19PM 36.3975 -88.6811 204° Southwest 418 481 34,900 -1,500 Descending Memphis Center
11:20PM 36.2836 -88.7453 206° Southwest 418 481 32,100 -2,640 Descending Memphis Center
11:21PM 36.1822 -88.8064 205° Southwest 418 481 29,700 -2,400 Descending Memphis Center
11:22PM 36.0850 -88.8622 205° Southwest 407 468 27,300 -2,460 Descending Memphis Center
11:23PM 35.9875 -88.9178 205° Southwest 402 463 24,800 -2,700 Descending Memphis Center
11:24PM 35.8819 -88.9786 206° Southwest 402 463 22,000 -2,880 Descending Memphis Center
11:25PM 35.7803 -89.0392 215° Southwest 408 470 19,100 -2,880 Descending Memphis Center
11:26PM 35.6914 -89.1147 228° Southwest 408 470 16,300 -2,880 Descending Memphis Center
11:27PM 35.6214 -89.2103 226° Southwest 393 452 13,400 -2,880 Descending Memphis Center
11:28PM 35.5494 -89.3031 226° Southwest 383 441 10,600 -1,740 Descending Memphis Center
11:29PM 35.4894 -89.3803 222° Southwest 370 426 10,000 -300 Descending Memphis Center
11:30PM 35.4211 -89.4550 195° South 343 395 10,000 -660 Level Memphis Center
11:31PM 35.3422 -89.4814 197° South 301 346 8,700 -1,500 Descending Memphis Center
11:32PM 35.2653 -89.5103 197° South 296 341 7,000 -1,680 Descending Memphis Center
11:33PM 35.1903 -89.5389 198° South 290 334 5,400 -1,320 Descending Memphis Center
11:34PM 35.1175 -89.5675 209° Southwest 284 327 4,500 -900 Descending Memphis Center
11:35PM 35.0572 -89.6089 261° West 258 297 3,700 -780 Descending Memphis Center
11:36PM 35.0472 -89.6822 276° West 206 237 3,000 -360 Descending Memphis Center
11:37PM 35.0539 -89.7558 272° West 216 249 3,000 -300 Level Memphis Center
11:38PM 35.0564 -89.8269 273° West 216 249 2,500 -780 Descending Memphis Center
11:39PM 35.0586 -89.8878 270° West 205 236 1,500 -900 Descending Memphis Center
11:40PM 35.0589 -89.9333 270° West 166 191 800 -540 Descending Memphis Center
11:41PM 35.0589 -89.9867 158° South 159 183 500 -360 Descending Memphis Center
11:49PM 34.3061 -89.6246 339° North  Level FlightAware Approximate
11:50PM 34.4027 -89.6707 338° Northwest  Level FlightAware Approximate
11:51PM 34.4993 -89.7168 338° Northwest  Level FlightAware Approximate
11:52PM 34.5958 -89.7631 304° West  Level FlightAware Approximate
11:53PM 34.6527 -89.8672 348° North  Level FlightAware Approximate
11:54PM 34.7544 -89.8926 349° North  Level FlightAware Approximate
11:55PM 34.8558 -89.9156 347° North  Level FlightAware Approximate
11:56PM 34.9565 -89.9446 347° North  Level FlightAware Approximate
11:57PM 35.0333 -89.9667 318° Northwest  Level FlightAware Approximate
11:58PM 35.1104 -90.0516 138° Southeast  Level Estimated
11:59PM 35.0333 -89.9667 318° Northwest  Level FlightAware Approximate
12:00AM 35.1104 -90.0516 138° Southeast  Level Estimated
12:01AM 35.0333 -89.9667 318° Northwest  Level FlightAware Approximate
12:02AM 35.1104 -90.0516 138° Southeast  Level Estimated
12:03AM 35.0333 -89.9667 138° Southeast  Level FlightAware Approximate